Time;durP1;ratioP1;P1;durP2;ratioP2;P2;SDS_P1;SDS_P2;PMS_P1;PMS_P2;Temp;Humidity;BMP_temperature;BMP_pressure;BME280_temperature;BME280_humidity;BME280_pressure;Samples;Min_cycle;Max_cycle;Signal;HPM_P1;HPM_P2
2022/11/02 00:00:41;;;;;;;;;;;;;;;20.22;64.05;97506.91;600639;236;62879;-73
2022/11/02 00:03:08;;;;;;;;;;;;;;;20.22;62.66;97506.91;600730;236;64933;-73
2022/11/02 00:05:36;;;;;;;;;;;;;;;20.21;63.15;97502.61;600682;236;64785;-73
2022/11/02 00:08:03;;;;;;;;;;;;;;;20.23;64.56;97513.05;600663;236;62762;-73
2022/11/02 00:10:31;;;;;;;;;;;;;;;20.22;64.59;97509.58;600686;236;64837;-73
2022/11/02 00:12:58;;;;;;;;;;;;;;;20.22;64.39;97506.11;600658;236;64813;-73
2022/11/02 00:15:27;;;;;;;;;;;;;;;20.22;65.28;97511.44;600699;236;63658;-73
2022/11/02 00:17:56;;;;;;;;;;;;;;;20.21;63.92;97501.81;600674;236;64843;-73
2022/11/02 00:20:25;;;;;;;;;;;;;;;20.21;65.55;97509.81;600693;236;64584;-73
2022/11/02 00:22:54;;;;;;;;;;;;;;;20.20;64.52;97509.02;600646;236;64902;-73
2022/11/02 00:25:23;;;;;;;;;;;;;;;20.20;65.44;97503.67;600690;236;67137;-73
2022/11/02 00:27:50;;;;;;;;;;;;;;;20.21;64.84;97504.48;600616;236;67292;-73
2022/11/02 00:30:19;;;;;;;;;;;;;;;20.20;64.73;97506.34;600738;236;62392;-73
2022/11/02 00:32:47;;;;;;;;;;;;;;;20.21;65.88;97507.14;600679;236;67081;-73
2022/11/02 00:35:14;;;;;;;;;;;;;;;20.20;64.26;97508.22;600674;236;64790;-73
2022/11/02 00:37:42;;;;;;;;;;;;;;;20.20;64.95;97514.35;600678;236;62774;-73
2022/11/02 00:40:10;;;;;;;;;;;;;;;20.21;64.81;97507.14;600648;236;67521;-73
2022/11/02 00:42:38;;;;;;;;;;;;;;;20.19;65.02;97499.41;600713;236;64737;-73
2022/11/02 00:45:06;;;;;;;;;;;;;;;20.18;64.89;97495.91;600728;236;62846;-73
2022/11/02 00:47:34;;;;;;;;;;;;;;;20.18;65.56;97493.24;600701;236;66522;-73
2022/11/02 00:50:01;;;;;;;;;;;;;;;20.17;66.20;97494.31;601375;234;64612;-73
2022/11/02 00:52:30;;;;;;;;;;;;;;;20.18;65.74;97490.58;604772;234;65509;-73
2022/11/02 00:54:58;;;;;;;;;;;;;;;20.17;65.13;97488.98;604798;234;65072;-74
2022/11/02 00:57:25;;;;;;;;;;;;;;;20.18;66.43;97485.23;604770;234;64714;-74
2022/11/02 00:59:53;;;;;;;;;;;;;;;20.17;65.58;97485.51;604785;234;65118;-74
2022/11/02 01:02:20;;;;;;;;;;;;;;;20.18;65.21;97484.44;604792;234;66936;-74
2022/11/02 01:04:48;;;;;;;;;;;;;;;20.16;64.84;97479.38;604778;234;66772;-74
2022/11/02 01:07:15;;;;;;;;;;;;;;;20.17;66.19;97488.17;604790;234;64980;-74
2022/11/02 01:09:43;;;;;;;;;;;;;;;20.17;66.33;97480.17;604788;234;67151;-79
2022/11/02 01:12:11;;;;;;;;;;;;;;;20.16;66.01;97482.04;604807;234;67207;-79
2022/11/02 01:14:38;;;;;;;;;;;;;;;20.16;65.98;97476.70;604772;234;65030;-79
2022/11/02 01:17:06;;;;;;;;;;;;;;;20.16;66.19;97476.70;604753;234;64492;-78
2022/11/02 01:19:34;;;;;;;;;;;;;;;20.16;65.25;97476.70;604766;234;67437;-79
2022/11/02 01:22:02;;;;;;;;;;;;;;;20.16;65.82;97473.20;604802;234;65016;-79
2022/11/02 01:24:29;;;;;;;;;;;;;;;20.15;64.85;97466.27;604793;234;67350;-79
2022/11/02 01:26:57;;;;;;;;;;;;;;;20.15;64.93;97472.41;604797;234;66961;-78
2022/11/02 01:29:24;;;;;;;;;;;;;;;20.16;65.21;97475.88;604770;234;65065;-78
2022/11/02 01:31:52;;;;;;;;;;;;;;;20.15;66.30;97468.94;604760;234;67071;-78
2022/11/02 01:34:22;;;;;;;;;;;;;;;20.15;65.98;97461.73;604835;234;66662;-79
2022/11/02 01:36:50;;;;;;;;;;;;;;;20.15;66.04;97468.94;604764;234;64997;-78
2022/11/02 01:39:17;;;;;;;;;;;;;;;20.15;66.26;97475.08;604761;234;67063;-78
2022/11/02 01:41:45;;;;;;;;;;;;;;;20.14;65.60;97456.67;604761;234;67412;-78
2022/11/02 01:44:32;;;;;;;;;;;;;;;20.13;66.29;97466.55;604770;234;64937;-79
2022/11/02 01:47:07;;;;;;;;;;;;;;;20.14;65.63;97454.80;604733;234;64914;-77
2022/11/02 01:49:36;;;;;;;;;;;;;;;20.14;65.51;97459.34;604800;234;66879;-78
2022/11/02 01:52:08;;;;;;;;;;;;;;;20.14;65.78;97454.00;604780;234;65090;-78
2022/11/02 01:54:43;;;;;;;;;;;;;;;20.13;65.33;97453.20;604752;234;66811;-78
2022/11/02 01:57:12;;;;;;;;;;;;;;;20.13;66.15;97450.53;604328;234;65020;-79
2022/11/02 01:59:44;;;;;;;;;;;;;;;20.12;66.21;97451.58;604750;234;64960;-80
2022/11/02 02:02:14;;;;;;;;;;;;;;;20.12;65.99;97451.58;604378;234;66878;-80
2022/11/02 02:04:42;;;;;;;;;;;;;;;20.11;65.55;97452.64;604723;234;66895;-78
2022/11/02 02:07:11;;;;;;;;;;;;;;;20.12;65.89;97442.77;604807;234;63041;-78
2022/11/02 02:09:39;;;;;;;;;;;;;;;20.11;65.84;97447.30;604846;234;67438;-78
2022/11/02 02:12:07;;;;;;;;;;;;;;;20.11;65.48;97444.64;604800;234;67076;-78
2022/11/02 02:14:35;;;;;;;;;;;;;;;20.11;66.46;97447.30;604846;234;62786;-78
2022/11/02 02:17:17;;;;;;;;;;;;;;;20.11;67.04;97449.17;604891;234;67061;-78
2022/11/02 02:20:01;;;;;;;;;;;;;;;20.10;66.04;97448.34;604787;234;64833;-80
2022/11/02 02:22:46;;;;;;;;;;;;;;;20.10;66.83;97448.34;604789;234;65068;-79
2022/11/02 02:25:16;;;;;;;;;;;;;;;20.10;67.34;97443.01;604833;234;64925;-79
2022/11/02 02:27:45;;;;;;;;;;;;;;;20.10;66.57;97439.55;604727;234;66858;-79
2022/11/02 02:30:14;;;;;;;;;;;;;;;20.10;66.34;97450.22;604522;234;65778;-80
2022/11/02 02:32:59;;;;;;;;;;;;;;;20.09;66.20;97440.61;604818;234;67405;-79
2022/11/02 02:35:32;;;;;;;;;;;;;;;20.10;66.98;97439.55;604696;234;67268;-79
2022/11/02 02:38:01;;;;;;;;;;;;;;;20.09;65.64;97444.08;604749;234;64891;-79
2022/11/02 02:40:40;;;;;;;;;;;;;;;20.09;66.55;97449.41;604777;234;67210;-79
2022/11/02 02:43:09;;;;;;;;;;;;;;;20.08;66.25;97442.48;604831;234;64837;-79
2022/11/02 02:45:38;;;;;;;;;;;;;;;20.08;65.81;97442.48;604775;234;62807;-80
2022/11/02 02:48:13;;;;;;;;;;;;;;;20.08;66.29;97439.81;604869;234;67071;-79
2022/11/02 02:50:43;;;;;;;;;;;;;;;20.08;66.62;97447.82;604765;234;67199;-79
2022/11/02 02:53:12;;;;;;;;;;;;;;;20.09;66.56;97448.62;604658;234;63598;-79
2022/11/02 02:55:41;;;;;;;;;;;;;;;20.07;66.41;97446.19;604782;234;67107;-74
2022/11/02 02:58:10;;;;;;;;;;;;;;;20.07;66.60;97445.39;604742;234;67474;-73
2022/11/02 03:00:38;;;;;;;;;;;;;;;20.08;65.99;97452.33;604676;234;64968;-73
2022/11/02 03:03:06;;;;;;;;;;;;;;;20.08;66.62;97453.16;604807;234;66968;-73
2022/11/02 03:05:34;;;;;;;;;;;;;;;20.07;66.94;97440.05;604779;234;64834;-73
2022/11/02 03:08:14;;;;;;;;;;;;;;;20.07;66.56;97440.85;604741;234;62377;-73
2022/11/02 03:10:49;;;;;;;;;;;;;;;20.07;66.63;97454.19;604778;234;67677;-73
2022/11/02 03:13:18;;;;;;;;;;;;;;;20.07;66.56;97450.73;604694;234;64805;-73
2022/11/02 03:15:53;;;;;;;;;;;;;;;20.07;66.57;97448.06;604813;234;64980;-73
2022/11/02 03:18:25;;;;;;;;;;;;;;;20.06;65.14;97452.59;604757;234;64252;-74
2022/11/02 03:20:54;;;;;;;;;;;;;;;20.07;67.27;97450.73;604480;234;66668;-75
2022/11/02 03:23:23;;;;;;;;;;;;;;;20.06;67.05;97449.92;604648;234;62748;-78
2022/11/02 03:25:55;;;;;;;;;;;;;;;20.07;66.67;97456.06;604741;234;65070;-75
2022/11/02 03:28:28;;;;;;;;;;;;;;;20.07;66.07;97458.73;604770;234;64356;-74
2022/11/02 03:31:00;;;;;;;;;;;;;;;20.06;66.12;97452.59;604233;234;62709;-74
2022/11/02 03:33:30;;;;;;;;;;;;;;;20.06;66.21;97455.27;604644;234;67669;-74
2022/11/02 03:36:05;;;;;;;;;;;;;;;20.06;66.77;97459.80;604819;234;64683;-74
2022/11/02 03:38:34;;;;;;;;;;;;;;;20.06;65.49;97454.47;604729;234;62933;-74
2022/11/02 03:41:03;;;;;;;;;;;;;;;20.05;65.62;97459.00;603942;234;67572;-74
2022/11/02 03:43:32;;;;;;;;;;;;;;;20.05;67.20;97453.66;604751;234;64936;-74
2022/11/02 03:46:01;;;;;;;;;;;;;;;20.04;67.55;97457.38;604831;234;62774;-74
2022/11/02 03:48:31;;;;;;;;;;;;;;;20.05;67.04;97459.00;604743;234;67607;-74
2022/11/02 03:51:00;;;;;;;;;;;;;;;20.04;67.89;97445.90;604722;234;65046;-74
2022/11/02 03:53:29;;;;;;;;;;;;;;;20.04;66.79;97445.90;604782;234;62661;-74
2022/11/02 03:55:59;;;;;;;;;;;;;;;20.04;66.92;97445.90;604641;234;67413;-74
2022/11/02 03:58:28;;;;;;;;;;;;;;;20.03;67.88;97445.10;604440;234;64500;-74
2022/11/02 04:00:57;;;;;;;;;;;;;;;20.04;67.70;97446.70;604810;234;65007;-74
2022/11/02 04:03:25;;;;;;;;;;;;;;;20.03;66.35;97447.77;604437;234;67745;-74
2022/11/02 04:05:53;;;;;;;;;;;;;;;20.04;68.07;97443.23;604807;234;64810;-74
2022/11/02 04:08:24;;;;;;;;;;;;;;;20.03;67.66;97438.97;604653;234;43728;-74
2022/11/02 04:16:28;;;;;;;;;;;;;;;20.02;67.17;97445.34;604807;234;65784;-73
2022/11/02 04:25:14;;;;;;;;;;;;;;;20.02;67.34;97442.67;604756;234;64853;-77
2022/11/02 04:26:58;;;;;;;;;;;;;;;20.00;67.38;97436.78;604795;234;67171;-74
2022/11/02 04:29:25;;;;;;;;;;;;;;;20.00;67.36;97439.45;604712;234;66802;-73
2022/11/02 04:31:53;;;;;;;;;;;;;;;19.99;67.50;97433.31;604784;234;62729;-73
2022/11/02 04:34:21;;;;;;;;;;;;;;;19.99;66.15;97438.66;604800;234;64640;-73
2022/11/02 04:36:48;;;;;;;;;;;;;;;20.01;67.02;97438.41;604781;234;64953;-72
2022/11/02 04:39:16;;;;;;;;;;;;;;;19.99;67.10;97438.66;604741;234;64956;-72
2022/11/02 04:41:44;;;;;;;;;;;;;;;20.00;67.65;97434.94;604741;234;67910;-73
2022/11/02 04:44:17;;;;;;;;;;;;;;;19.99;67.57;97435.98;604447;234;49704;-73
2022/11/02 04:46:46;;;;;;;;;;;;;;;20.00;68.02;97440.28;604695;234;41467;-73
2022/11/02 04:49:14;;;;;;;;;;;;;;;19.99;66.93;97443.19;604696;234;64516;-73
2022/11/02 04:51:41;;;;;;;;;;;;;;;19.99;67.63;97441.31;604730;234;66830;-73
2022/11/02 04:54:09;;;;;;;;;;;;;;;19.99;66.91;97441.31;604779;234;62276;-73
2022/11/02 04:56:38;;;;;;;;;;;;;;;20.00;67.73;97442.12;604452;234;67327;-73
2022/11/02 04:59:09;;;;;;;;;;;;;;;19.98;68.09;97437.05;604840;234;64267;-74
2022/11/02 05:01:38;;;;;;;;;;;;;;;19.99;67.70;97443.19;604695;234;46334;-74
2022/11/02 05:04:06;;;;;;;;;;;;;;;19.98;67.75;97439.72;604748;234;66751;-74
2022/11/02 05:06:34;;;;;;;;;;;;;;;19.98;67.02;97431.72;604733;234;64323;-73
2022/11/02 05:09:02;;;;;;;;;;;;;;;19.97;67.03;97440.79;604754;234;65111;-73
2022/11/02 05:11:30;;;;;;;;;;;;;;;19.98;67.08;97445.05;604761;234;64168;-73
2022/11/02 05:13:58;;;;;;;;;;;;;;;19.97;67.43;97443.45;604855;234;66845;-74
2022/11/02 05:16:27;;;;;;;;;;;;;;;19.99;68.44;97445.86;599386;234;64181;-75
2022/11/02 05:18:54;;;;;;;;;;;;;;;19.97;67.67;97446.13;604709;234;67236;-73
2022/11/02 05:21:24;;;;;;;;;;;;;;;19.98;67.13;97445.05;604649;234;67123;-74
2022/11/02 05:23:54;;;;;;;;;;;;;;;19.98;65.86;97444.25;604654;234;62496;-74
2022/11/02 05:26:22;;;;;;;;;;;;;;;19.98;66.09;97449.59;604788;234;67585;-74
2022/11/02 05:28:52;;;;;;;;;;;;;;;19.97;67.05;97451.46;604739;234;67644;-74
2022/11/02 05:31:20;;;;;;;;;;;;;;;19.98;66.87;97453.06;604745;234;62397;-74
2022/11/02 05:33:48;;;;;;;;;;;;;;;19.98;65.76;97452.26;604758;234;67553;-74
2022/11/02 05:36:17;;;;;;;;;;;;;;;19.96;66.17;97453.30;604708;234;44222;-74
2022/11/02 05:38:46;;;;;;;;;;;;;;;19.96;65.83;97458.63;604810;234;42278;-74
2022/11/02 05:41:14;;;;;;;;;;;;;;;19.97;67.22;97462.13;604768;234;67083;-75
2022/11/02 05:43:42;;;;;;;;;;;;;;;19.96;65.97;97460.50;604700;234;64126;-74
2022/11/02 05:46:13;;;;;;;;;;;;;;;19.96;67.17;97463.17;604778;234;65238;-74
2022/11/02 05:48:41;;;;;;;;;;;;;;;19.96;67.68;97463.97;604769;234;67018;-74
2022/11/02 05:51:09;;;;;;;;;;;;;;;19.96;66.44;97465.84;604668;234;66659;-74
2022/11/02 05:53:37;;;;;;;;;;;;;;;19.96;66.40;97471.97;604818;234;62851;-74
2022/11/02 05:56:05;;;;;;;;;;;;;;;19.96;66.63;97471.17;604772;234;67374;-74
2022/11/02 05:58:33;;;;;;;;;;;;;;;19.95;65.02;97474.91;604748;234;66944;-74
2022/11/02 06:01:01;;;;;;;;;;;;;;;19.95;65.73;97474.91;604751;234;64907;-74
2022/11/02 06:03:30;;;;;;;;;;;;;;;19.96;65.93;97476.51;604716;234;65067;-74
2022/11/02 06:05:58;;;;;;;;;;;;;;;19.94;65.64;97479.44;604826;234;66847;-74
2022/11/02 06:08:25;;;;;;;;;;;;;;;19.95;65.98;97482.91;604795;234;65058;-73
2022/11/02 06:10:53;;;;;;;;;;;;;;;19.96;65.79;97484.52;604809;234;66829;-74
2022/11/02 06:13:21;;;;;;;;;;;;;;;19.95;67.16;97482.91;604810;234;65753;-74
2022/11/02 06:15:48;;;;;;;;;;;;;;;19.94;66.64;97481.28;604756;234;62874;-74
2022/11/02 06:18:16;;;;;;;;;;;;;;;19.92;66.71;97476.22;604823;234;64839;-74
2022/11/02 06:20:43;;;;;;;;;;;;;;;19.93;67.20;97479.69;604765;234;64787;-74
2022/11/02 06:23:13;;;;;;;;;;;;;;;19.93;67.34;97479.69;604766;234;62765;-74
2022/11/02 06:25:40;;;;;;;;;;;;;;;19.93;66.56;97482.35;604787;234;66981;-74
2022/11/02 06:28:07;;;;;;;;;;;;;;;19.93;66.74;97477.02;604544;232;66845;-74
2022/11/02 06:30:35;;;;;;;;;;;;;;;19.94;66.16;97478.61;603573;234;62741;-74
2022/11/02 06:33:03;;;;;;;;;;;;;;;19.94;66.88;97474.11;588616;234;64879;-74
2022/11/02 06:35:32;;;;;;;;;;;;;;;19.95;67.24;97469.58;599393;234;64578;-78
2022/11/02 06:37:59;;;;;;;;;;;;;;;19.94;67.18;97471.44;598796;234;66553;-78
2022/11/02 06:40:28;;;;;;;;;;;;;;;19.94;65.59;97468.77;604778;234;64569;-78
2022/11/02 06:42:58;;;;;;;;;;;;;;;19.98;66.18;97470.94;604737;234;67418;-76
2022/11/02 06:45:25;;;;;;;;;;;;;;;19.96;65.74;97471.97;604773;234;65135;-77
2022/11/02 06:47:53;;;;;;;;;;;;;;;19.98;63.32;97471.73;604805;234;67118;-77
2022/11/02 06:50:22;;;;;;;;;;;;;;;19.98;64.71;97469.06;604689;232;66926;-77
2022/11/02 06:52:50;;;;;;;;;;;;;;;20.00;65.78;97466.12;604574;234;64854;-76
2022/11/02 06:55:18;;;;;;;;;;;;;;;19.99;65.93;97459.99;604498;232;67057;-76
2022/11/02 06:57:45;;;;;;;;;;;;;;;20.00;61.66;97466.95;604648;234;67161;-79
2022/11/02 07:00:16;;;;;;;;;;;;;;;20.01;60.62;97465.89;604071;234;64886;-77
2022/11/02 07:02:44;;;;;;;;;;;;;;;20.04;60.91;97468.05;604566;234;66770;-78
2022/11/02 07:05:13;;;;;;;;;;;;;;;20.05;60.94;97464.34;604609;232;66895;-78
2022/11/02 07:07:40;;;;;;;;;;;;;;;20.05;62.12;97469.67;604401;234;65163;-78
2022/11/02 07:10:09;;;;;;;;;;;;;;;20.06;61.54;97459.80;604580;234;67280;-74
2022/11/02 07:12:37;;;;;;;;;;;;;;;20.07;61.38;97456.06;604443;234;64779;-76
2022/11/02 07:15:04;;;;;;;;;;;;;;;20.08;60.30;97447.82;604445;234;62827;-74
2022/11/02 07:17:32;;;;;;;;;;;;;;;20.09;60.88;97459.29;604546;234;65107;-78
2022/11/02 07:19:59;;;;;;;;;;;;;;;20.09;60.03;97454.75;604584;234;64796;-76
2022/11/02 07:22:27;;;;;;;;;;;;;;;20.10;61.01;97453.68;604491;234;62843;-76
2022/11/02 07:24:54;;;;;;;;;;;;;;;20.11;59.50;97457.98;604619;234;64759;-74
2022/11/02 07:27:22;;;;;;;;;;;;;;;20.13;60.23;97453.20;604520;234;66737;-79
2022/11/02 07:29:49;;;;;;;;;;;;;;;20.14;60.04;97456.67;604498;234;64952;-77
2022/11/02 07:32:17;;;;;;;;;;;;;;;20.14;60.64;97451.33;604617;234;66990;-79
2022/11/02 07:34:46;;;;;;;;;;;;;;;20.15;61.05;97444.92;604559;234;66805;-76
2022/11/02 07:37:14;;;;;;;;;;;;;;;20.15;60.96;97445.72;604506;234;64928;-78
2022/11/02 07:39:41;;;;;;;;;;;;;;;20.16;60.81;97444.69;604573;234;67027;-81
2022/11/02 07:42:09;;;;;;;;;;;;;;;20.15;60.62;97432.37;604656;234;66988;-79
2022/11/02 07:44:36;;;;;;;;;;;;;;;20.17;60.77;97440.14;604515;234;64692;-75
2022/11/02 07:47:04;;;;;;;;;;;;;;;20.18;59.79;97441.74;604552;234;64964;-75
2022/11/02 07:49:31;;;;;;;;;;;;;;;20.19;60.40;97438.03;604498;234;64636;-76
2022/11/02 07:51:59;;;;;;;;;;;;;;;20.20;60.15;97442.30;604473;234;61908;-76
2022/11/02 07:54:26;;;;;;;;;;;;;;;20.21;59.85;97437.77;604563;234;64912;-77
2022/11/02 07:56:54;;;;;;;;;;;;;;;20.23;60.23;97433.78;604471;234;67149;-74
2022/11/02 07:59:21;;;;;;;;;;;;;;;20.23;60.73;97439.11;604505;234;65024;-77
2022/11/02 08:01:49;;;;;;;;;;;;;;;20.24;60.05;97437.25;604571;234;67158;-82
2022/11/02 08:04:16;;;;;;;;;;;;;;;20.24;61.08;97429.24;604498;234;67710;-79
2022/11/02 08:06:43;;;;;;;;;;;;;;;20.25;60.43;97431.67;604617;234;65073;-80
2022/11/02 08:09:11;;;;;;;;;;;;;;;20.27;60.58;97434.89;604538;234;67262;-76
2022/11/02 08:11:38;;;;;;;;;;;;;;;20.28;61.81;97430.36;604544;234;68136;-78
2022/11/02 08:14:06;;;;;;;;;;;;;;;20.28;61.35;97425.81;604651;234;64971;-81
2022/11/02 08:16:35;;;;;;;;;;;;;;;20.28;62.05;97425.81;604590;234;44439;-78
2022/11/02 08:19:03;;;;;;;;;;;;;;;20.31;62.22;97424.50;604458;234;64739;-75
2022/11/02 08:21:30;;;;;;;;;;;;;;;20.30;61.63;97418.36;604558;234;62806;-77
2022/11/02 08:23:59;;;;;;;;;;;;;;;20.32;62.76;97423.42;604561;234;65156;-78
2022/11/02 08:26:27;;;;;;;;;;;;;;;20.33;62.27;97419.72;604489;234;65733;-79
2022/11/02 08:28:54;;;;;;;;;;;;;;;20.33;62.40;97417.84;604510;234;62851;-76
2022/11/02 08:31:22;;;;;;;;;;;;;;;20.34;62.57;97418.64;604505;234;64999;-75
2022/11/02 08:33:50;;;;;;;;;;;;;;;20.34;62.30;97410.64;604505;234;66881;-78
2022/11/02 08:36:17;;;;;;;;;;;;;;;20.34;61.94;97406.09;604540;234;64893;-80
2022/11/02 08:38:45;;;;;;;;;;;;;;;20.35;61.86;97404.23;604609;234;64845;-78
2022/11/02 08:41:13;;;;;;;;;;;;;;;20.36;62.01;97403.98;604454;234;64780;-78
2022/11/02 08:43:40;;;;;;;;;;;;;;;20.37;61.97;97404.78;604479;234;64912;-77
2022/11/02 08:46:08;;;;;;;;;;;;;;;20.38;62.73;97403.73;604499;234;67189;-75
2022/11/02 08:48:35;;;;;;;;;;;;;;;20.38;62.15;97398.40;604557;234;66844;-77
2022/11/02 08:51:04;;;;;;;;;;;;;;;20.39;62.93;97405.34;604567;234;64995;-78
2022/11/02 08:53:32;;;;;;;;;;;;;;;20.39;62.25;97397.33;604556;234;64570;-79
2022/11/02 08:55:59;;;;;;;;;;;;;;;20.40;63.28;97399.72;604518;234;67141;-77
2022/11/02 08:58:27;;;;;;;;;;;;;;;20.41;62.91;97400.55;604541;234;65162;-75
2022/11/02 09:00:54;;;;;;;;;;;;;;;20.42;62.37;97396.81;604532;234;67062;-77
2022/11/02 09:03:23;;;;;;;;;;;;;;;20.42;62.01;97398.68;604598;234;64241;-76
2022/11/02 09:05:52;;;;;;;;;;;;;;;20.43;63.15;97395.73;604597;234;65132;-78
2022/11/02 09:08:20;;;;;;;;;;;;;;;20.43;62.89;97398.41;604410;234;66818;-77
2022/11/02 09:10:49;;;;;;;;;;;;;;;20.44;62.07;97394.70;604499;234;67121;-76
2022/11/02 09:13:19;;;;;;;;;;;;;;;20.44;62.42;97392.02;604493;234;63699;-75
2022/11/02 09:15:48;;;;;;;;;;;;;;;20.44;59.97;97389.36;604552;234;65469;-76
2022/11/02 09:18:16;;;;;;;;;;;;;;;20.50;60.21;97390.19;604625;234;67555;-79
2022/11/02 09:20:44;;;;;;;;;;;;;;;20.53;59.99;97400.34;604535;234;64866;-70
2022/11/02 09:23:12;;;;;;;;;;;;;;;20.56;60.39;97399.86;604396;234;66752;-77
2022/11/02 09:25:39;;;;;;;;;;;;;;;20.57;60.74;97396.94;604505;234;64710;-77
2022/11/02 09:28:07;;;;;;;;;;;;;;;20.56;59.92;97389.97;604589;234;62817;-77
2022/11/02 09:30:35;;;;;;;;;;;;;;;20.55;60.66;97393.72;604512;234;66859;-74
2022/11/02 09:33:04;;;;;;;;;;;;;;;20.55;60.32;97393.72;604544;234;66876;-77
2022/11/02 09:35:33;;;;;;;;;;;;;;;20.55;60.03;97384.91;604564;234;65672;-76
2022/11/02 09:38:01;;;;;;;;;;;;;;;20.55;60.23;97385.70;604472;234;73452;-79
2022/11/02 09:40:33;;;;;;;;;;;;;;;20.56;60.35;97384.64;604565;234;67015;-77
2022/11/02 09:43:07;;;;;;;;;;;;;;;20.56;60.30;97379.30;604480;234;62718;-78
2022/11/02 09:45:53;;;;;;;;;;;;;;;20.57;60.09;97380.09;604316;234;67991;-79
2022/11/02 09:48:25;;;;;;;;;;;;;;;20.56;60.09;97373.95;604519;234;67093;-77
2022/11/02 09:50:54;;;;;;;;;;;;;;;20.57;60.55;97372.91;604301;234;64946;-75
2022/11/02 09:53:26;;;;;;;;;;;;;;;20.58;60.11;97382.52;604178;234;67089;-80
2022/11/02 09:55:55;;;;;;;;;;;;;;;20.59;60.14;97370.77;603616;234;64985;-77
2022/11/02 09:58:24;;;;;;;;;;;;;;;20.61;60.79;97376.66;604506;234;62797;-75
2022/11/02 10:00:53;;;;;;;;;;;;;;;20.61;60.78;97363.30;604196;234;64937;-75
2022/11/02 10:03:33;;;;;;;;;;;;;;;20.60;60.32;97364.37;604447;234;65012;-81
2022/11/02 10:06:05;;;;;;;;;;;;;;;20.62;60.40;97372.11;593252;239;64908;-80
2022/11/02 10:08:37;;;;;;;;;;;;;;;20.61;60.49;97360.62;604337;234;67018;-75
2022/11/02 10:11:09;;;;;;;;;;;;;;;20.62;60.59;97356.09;604393;234;67116;-76
2022/11/02 10:13:38;;;;;;;;;;;;;;;20.63;60.27;97359.59;604472;234;63740;-77
2022/11/02 10:16:07;;;;;;;;;;;;;;;20.62;59.95;97350.75;604607;234;64926;-77
2022/11/02 10:18:35;;;;;;;;;;;;;;;20.63;59.52;97340.89;604566;234;64396;-77
2022/11/02 10:21:07;;;;;;;;;;;;;;;20.64;59.67;97348.63;604452;234;64867;-71
2022/11/02 10:23:39;;;;;;;;;;;;;;;20.64;60.27;97345.16;604214;234;67129;-75
2022/11/02 10:26:08;;;;;;;;;;;;;;;20.65;60.24;97344.09;604483;234;67200;-76
2022/11/02 10:28:37;;;;;;;;;;;;;;;20.65;60.02;97341.41;604439;234;64945;-74
2022/11/02 10:31:06;;;;;;;;;;;;;;;20.66;60.55;97349.18;604620;234;64958;-77
2022/11/02 10:33:33;;;;;;;;;;;;;;;20.65;60.88;97338.75;604071;234;64780;-70
2022/11/02 10:36:19;;;;;;;;;;;;;;;20.64;60.63;97339.82;604512;234;62760;-77
2022/11/02 10:38:54;;;;;;;;;;;;;;;20.64;59.95;97334.48;604596;234;68045;-77
2022/11/02 10:41:26;;;;;;;;;;;;;;;20.65;59.70;97328.86;604417;234;66896;-77
2022/11/02 10:43:55;;;;;;;;;;;;;;;20.65;60.13;97328.86;604602;234;62801;-77
2022/11/02 10:46:24;;;;;;;;;;;;;;;20.66;60.05;97324.34;604329;234;66817;-77
2022/11/02 10:48:53;;;;;;;;;;;;;;;20.66;60.21;97324.34;604406;234;66873;-77
2022/11/02 10:51:23;;;;;;;;;;;;;;;20.65;59.79;97322.72;601700;234;64873;-77
2022/11/02 10:53:52;;;;;;;;;;;;;;;20.65;59.42;97320.85;600693;236;67516;-74
2022/11/02 10:56:21;;;;;;;;;;;;;;;20.67;58.42;97325.94;600702;236;66862;-77
2022/11/02 10:58:50;;;;;;;;;;;;;;;20.67;59.03;97315.27;600639;235;62792;-76
2022/11/02 11:01:18;;;;;;;;;;;;;;;20.65;60.80;97318.18;600611;236;64909;-77
2022/11/02 11:04:01;;;;;;;;;;;;;;;20.65;61.48;97314.71;600668;236;66888;-78
2022/11/02 11:06:39;;;;;;;;;;;;;;;20.64;61.26;97310.45;600662;236;62747;-78
2022/11/02 11:09:08;;;;;;;;;;;;;;;20.63;60.16;97314.19;600583;234;64858;-79
2022/11/02 11:11:37;;;;;;;;;;;;;;;20.63;60.25;97312.32;600509;236;64830;-79
2022/11/02 11:14:09;;;;;;;;;;;;;;;20.61;60.51;97307.23;600740;236;64956;-80
2022/11/02 11:16:37;;;;;;;;;;;;;;;20.62;60.73;97308.02;600421;236;67011;-79
2022/11/02 11:19:07;;;;;;;;;;;;;;;20.63;60.33;97308.85;600672;236;66930;-80
2022/11/02 11:21:39;;;;;;;;;;;;;;;20.62;59.25;97308.02;600699;236;63079;-79
2022/11/02 11:24:20;;;;;;;;;;;;;;;20.60;60.81;97300.29;600401;236;64547;-79
2022/11/02 11:26:49;;;;;;;;;;;;;;;20.61;58.62;97299.22;600563;236;64454;-79
2022/11/02 11:29:22;;;;;;;;;;;;;;;20.60;59.92;97300.29;600184;236;62906;-80
2022/11/02 11:31:50;;;;;;;;;;;;;;;20.61;59.98;97296.55;599189;236;67074;-80
2022/11/02 11:34:22;;;;;;;;;;;;;;;20.62;60.01;97289.33;600713;236;64409;-75
2022/11/02 11:36:49;;;;;;;;;;;;;;;20.61;59.10;97293.88;600425;236;64843;-72
2022/11/02 11:39:19;;;;;;;;;;;;;;;20.63;57.90;97292.83;600615;236;64811;-81
2022/11/02 11:41:46;;;;;;;;;;;;;;;20.64;58.12;97286.41;600551;236;67283;-81
2022/11/02 11:44:15;;;;;;;;;;;;;;;20.65;56.59;97296.02;600835;236;64673;-76
2022/11/02 11:46:44;;;;;;;;;;;;;;;20.66;57.49;97290.43;600628;236;64844;-77
2022/11/02 11:49:22;;;;;;;;;;;;;;;20.67;57.59;97288.56;600551;236;64835;-75
2022/11/02 11:51:51;;;;;;;;;;;;;;;20.67;57.87;97283.22;604187;233;64916;-72
2022/11/02 11:54:26;;;;;;;;;;;;;;;20.68;58.07;97287.48;604527;234;67341;-79
2022/11/02 11:56:55;;;;;;;;;;;;;;;20.68;58.53;97274.13;604567;234;66742;-74
2022/11/02 11:59:27;;;;;;;;;;;;;;;20.68;58.61;97279.47;604459;234;62837;-73
2022/11/02 12:01:56;;;;;;;;;;;;;;;20.69;58.72;97281.09;603831;234;64540;-76
2022/11/02 12:04:28;;;;;;;;;;;;;;;20.70;59.19;97280.02;604089;234;66932;-75
2022/11/02 12:06:57;;;;;;;;;;;;;;;20.69;59.95;97287.23;604484;234;63638;-74
2022/11/02 12:09:38;;;;;;;;;;;;;;;20.69;59.84;97283.77;604169;234;67244;-76
2022/11/02 12:12:07;;;;;;;;;;;;;;;20.68;59.98;97277.63;604425;234;66864;-74
2022/11/02 12:14:53;;;;;;;;;;;;;;;20.68;59.46;97285.64;603540;234;65213;-74
2022/11/02 12:17:25;;;;;;;;;;;;;;;20.68;59.37;97279.47;604531;234;67019;-75
2022/11/02 12:20:00;;;;;;;;;;;;;;;20.68;59.42;97268.78;604051;234;64839;-73
2022/11/02 12:22:38;;;;;;;;;;;;;;;20.68;59.50;97260.77;601367;234;64985;-74
2022/11/02 12:25:23;;;;;;;;;;;;;;;20.68;59.02;97266.12;603646;234;64840;-77
2022/11/02 12:28:08;;;;;;;;;;;;;;;20.69;59.05;97260.52;604521;234;64870;-77
2022/11/02 12:30:46;;;;;;;;;;;;;;;20.69;58.87;97259.73;604333;234;66076;-77
2022/11/02 12:33:16;;;;;;;;;;;;;;;20.70;59.11;97261.33;604578;234;64834;-77
2022/11/02 12:35:51;;;;;;;;;;;;;;;20.69;59.35;97257.86;604591;234;64930;-77
2022/11/02 12:38:35;;;;;;;;;;;;;;;20.70;59.59;97261.33;604550;234;65279;-77
2022/11/02 12:41:12;;;;;;;;;;;;;;;20.71;59.65;97257.61;604202;234;64883;-73
2022/11/02 12:43:44;;;;;;;;;;;;;;;20.70;59.97;97255.98;604484;234;67041;-74
2022/11/02 12:46:30;;;;;;;;;;;;;;;20.71;59.85;97260.28;604382;234;63863;-74
2022/11/02 12:49:16;;;;;;;;;;;;;;;20.71;59.96;97249.59;604385;234;67088;-74
2022/11/02 12:51:45;;;;;;;;;;;;;;;20.71;59.94;97255.73;604400;234;65496;-74
2022/11/02 12:54:14;;;;;;;;;;;;;;;20.71;60.07;97253.06;601294;234;66101;-74
2022/11/02 12:56:49;;;;;;;;;;;;;;;20.72;60.31;97249.31;604238;234;67157;-74
2022/11/02 12:59:19;;;;;;;;;;;;;;;20.71;60.23;97242.37;604461;234;65204;-74
2022/11/02 13:01:49;;;;;;;;;;;;;;;20.72;60.39;97240.50;604292;234;62761;-74
2022/11/02 13:04:23;;;;;;;;;;;;;;;20.73;60.32;97242.09;604446;234;64858;-74
2022/11/02 13:06:52;;;;;;;;;;;;;;;20.73;60.64;97234.09;604539;234;66885;-74
2022/11/02 13:09:33;;;;;;;;;;;;;;;20.72;60.51;97233.30;604507;234;64936;-74
2022/11/02 13:12:09;;;;;;;;;;;;;;;20.73;60.73;97236.76;604132;234;64629;-73